createdAt,value
2022-12-02T00:02:28.607Z,102397.94
2022-12-02T00:05:04.919Z,102400.47
2022-12-02T00:07:34.785Z,102399.41
2022-12-02T00:10:01.951Z,102401.03
2022-12-02T00:12:32.687Z,102392.59
2022-12-02T00:15:44.634Z,102398.00
2022-12-02T00:18:17.058Z,102391.69
2022-12-02T00:20:44.904Z,102398.44
2022-12-02T00:23:12.427Z,102393.56
2022-12-02T00:25:40.591Z,102400.03
2022-12-02T00:28:10.109Z,102392.78
2022-12-02T00:30:40.888Z,102395.22
2022-12-02T00:33:08.946Z,102394.81
2022-12-02T00:35:37.138Z,102394.28
2022-12-02T00:38:05.403Z,102400.56
2022-12-02T00:40:32.718Z,102397.44
2022-12-02T00:43:21.289Z,102403.19
2022-12-02T00:46:07.958Z,102390.63
2022-12-02T00:48:36.036Z,102389.94
2022-12-02T00:51:03.813Z,102387.75
2022-12-02T00:53:34.069Z,102382.19
2022-12-02T00:56:03.191Z,102389.63
2022-12-02T00:58:30.281Z,102383.97
2022-12-02T01:00:57.667Z,102394.53
2022-12-02T01:03:24.858Z,102391.94
2022-12-02T01:05:51.841Z,102394.44
2022-12-02T01:08:25.422Z,102394.91
2022-12-02T01:10:55.270Z,102398.38
2022-12-02T01:13:25.790Z,102390.53
2022-12-02T01:15:53.051Z,102390.22
2022-12-02T01:18:20.538Z,102394.69
2022-12-02T01:20:50.105Z,102399.00
2022-12-02T01:23:17.415Z,102387.13
2022-12-02T01:25:48.463Z,102379.97
2022-12-02T01:28:19.880Z,102385.66
2022-12-02T01:30:47.860Z,102379.25
2022-12-02T01:33:15.352Z,102379.63
2022-12-02T01:35:45.319Z,102385.13
2022-12-02T01:38:12.285Z,102393.19
2022-12-02T01:40:42.655Z,102393.44
2022-12-02T01:43:12.334Z,102387.69
2022-12-02T01:45:42.194Z,102388.09
2022-12-02T01:48:09.394Z,102392.81
2022-12-02T01:50:38.847Z,102388.84
2022-12-02T01:53:08.409Z,102397.22
2022-12-02T01:55:37.633Z,102395.00
2022-12-02T01:58:04.916Z,102393.78
2022-12-02T02:00:34.793Z,102393.50
2022-12-02T02:03:01.774Z,102389.38
2022-12-02T02:05:31.650Z,102387.25
2022-12-02T02:08:06.167Z,102383.41
2022-12-02T02:10:35.562Z,102386.59
2022-12-02T02:13:03.189Z,102386.88
2022-12-02T02:15:33.178Z,102382.13
2022-12-02T02:18:04.780Z,102381.81
2022-12-02T02:20:33.626Z,102383.91
2022-12-02T02:23:06.618Z,102386.97
2022-12-02T02:25:40.078Z,102392.41
2022-12-02T02:28:09.416Z,102386.69
2022-12-02T02:30:37.751Z,102383.22
2022-12-02T02:33:13.626Z,102383.06
2022-12-02T02:35:44.155Z,102387.06
2022-12-02T02:38:18.372Z,102391.97
2022-12-02T02:40:45.839Z,102384.88
2022-12-02T02:43:13.403Z,102386.03
2022-12-02T02:45:45.528Z,102387.72
2022-12-02T02:48:14.422Z,102383.34
2022-12-02T02:50:44.584Z,102387.72
2022-12-02T02:53:16.037Z,102386.31
2022-12-02T02:55:45.471Z,102383.59
2022-12-02T02:58:15.493Z,102384.16
2022-12-02T03:00:43.516Z,102381.00
2022-12-02T03:03:14.387Z,102376.22
2022-12-02T03:05:41.534Z,102383.81
2022-12-02T03:08:12.545Z,102383.81
2022-12-02T03:10:40.105Z,102378.75
2022-12-02T03:13:10.492Z,102379.38
2022-12-02T03:15:38.210Z,102387.31
2022-12-02T03:18:05.672Z,102384.38
2022-12-02T03:20:32.871Z,102377.81
2022-12-02T03:23:01.603Z,102383.16
2022-12-02T03:25:29.111Z,102373.16
2022-12-02T03:27:56.886Z,102373.53
2022-12-02T03:30:24.360Z,102381.09
2022-12-02T03:32:51.588Z,102378.84
2022-12-02T03:35:21.368Z,102378.75
2022-12-02T03:37:48.386Z,102379.78
2022-12-02T03:40:16.960Z,102373.16
2022-12-02T03:42:44.261Z,102376.44
2022-12-02T03:45:12.460Z,102374.91
2022-12-02T03:47:40.890Z,102370.75
2022-12-02T03:50:09.068Z,102377.84
2022-12-02T03:52:39.246Z,102371.75
2022-12-02T03:55:07.445Z,102368.03
2022-12-02T03:57:37.470Z,102372.78
2022-12-02T04:00:09.877Z,102362.16
2022-12-02T04:02:42.438Z,102368.69
2022-12-02T04:05:09.876Z,102369.03
2022-12-02T04:07:37.095Z,102361.19
2022-12-02T04:10:07.991Z,102370.91
2022-12-02T04:12:37.474Z,102369.78
2022-12-02T04:15:05.149Z,102362.78
2022-12-02T04:17:34.615Z,102364.91
2022-12-02T04:20:06.361Z,102368.03
2022-12-02T04:22:33.521Z,102366.72
2022-12-02T04:25:02.499Z,102366.94
2022-12-02T04:27:29.579Z,102364.31
2022-12-02T04:29:56.648Z,102362.41
2022-12-02T04:32:23.614Z,102369.72
2022-12-02T04:34:53.067Z,102373.13
2022-12-02T04:37:21.557Z,102374.31
2022-12-02T04:39:48.531Z,102369.66
2022-12-02T04:42:15.542Z,102367.94
2022-12-02T04:44:45.429Z,102367.56
2022-12-02T04:47:12.418Z,102368.56
2022-12-02T04:49:39.514Z,102367.19
2022-12-02T04:52:06.511Z,102362.88
2022-12-02T04:54:33.523Z,102367.75
2022-12-02T04:57:03.045Z,102363.94
2022-12-02T04:59:30.063Z,102379.78
2022-12-02T05:01:57.155Z,102369.16
2022-12-02T05:04:24.173Z,102369.91
2022-12-02T05:06:53.335Z,102371.84
2022-12-02T05:09:22.391Z,102377.09
2022-12-02T05:11:49.385Z,102374.69
2022-12-02T05:14:16.419Z,102367.63
2022-12-02T05:16:43.445Z,102372.31
2022-12-02T05:19:17.752Z,102380.53
2022-12-02T05:21:44.824Z,102372.03
2022-12-02T05:24:12.412Z,102372.84
2022-12-02T05:26:39.471Z,102372.91
2022-12-02T05:29:07.984Z,102375.03
2022-12-02T05:31:35.037Z,102373.88
2022-12-02T05:34:06.265Z,102380.09
2022-12-02T05:36:33.327Z,102379.94
2022-12-02T05:39:00.317Z,102385.91
2022-12-02T05:41:27.444Z,102378.06
2022-12-02T05:43:54.978Z,102380.84
2022-12-02T05:46:22.302Z,102383.41
2022-12-02T05:48:50.509Z,102377.06
2022-12-02T05:51:20.709Z,102381.53
2022-12-02T05:53:50.949Z,102385.22
2022-12-02T05:56:26.374Z,102387.69
2022-12-02T05:59:00.069Z,102392.00
2022-12-02T06:01:36.422Z,102394.22
2022-12-02T06:04:05.346Z,102391.44
2022-12-02T06:06:36.347Z,102389.72
2022-12-02T06:09:03.463Z,102393.19
2022-12-02T06:11:38.996Z,102389.53
2022-12-02T06:14:36.223Z,102398.69
2022-12-02T06:17:14.377Z,102392.97
2022-12-02T06:19:53.755Z,102396.59
2022-12-02T06:22:25.243Z,102391.03
2022-12-02T06:24:57.799Z,102391.53
2022-12-02T06:27:25.139Z,102390.03
2022-12-02T06:30:01.790Z,102396.25
2022-12-02T06:32:47.143Z,102402.81
2022-12-02T06:35:24.513Z,102393.00
2022-12-02T06:37:56.381Z,102400.69
2022-12-02T06:40:33.396Z,102399.56
2022-12-02T06:43:07.332Z,102403.25
2022-12-02T06:45:38.081Z,102405.75
2022-12-02T06:48:50.352Z,102399.97
2022-12-02T06:51:38.440Z,102405.81
2022-12-02T06:54:21.011Z,102418.22
2022-12-02T06:56:50.605Z,102422.00
2022-12-02T06:59:23.241Z,102407.03
2022-12-02T07:01:57.259Z,102409.53
2022-12-02T07:04:49.274Z,102417.63
2022-12-02T07:07:28.204Z,102415.59
2022-12-02T07:10:07.074Z,102413.38
2022-12-02T07:12:46.832Z,102420.16
2022-12-02T07:15:32.042Z,102417.13
2022-12-02T07:18:19.406Z,102419.66
2022-12-02T07:20:49.513Z,102427.25
2022-12-02T07:23:29.444Z,102427.81
2022-12-02T07:26:00.853Z,102419.25
2022-12-02T07:28:36.473Z,102429.44
2022-12-02T07:31:24.311Z,102419.84
2022-12-02T07:33:52.312Z,102416.09
2022-12-02T07:36:20.011Z,102425.69
2022-12-02T07:41:37.144Z,102431.06
2022-12-02T07:44:05.833Z,102435.03
2022-12-02T07:46:33.148Z,102429.09
2022-12-02T07:49:00.203Z,102425.47
2022-12-02T07:51:27.454Z,102425.19
2022-12-02T07:53:54.535Z,102431.94
2022-12-02T07:56:21.505Z,102436.47
2022-12-02T07:59:17.260Z,102440.19
2022-12-02T08:01:35.496Z,102439.59
2022-12-02T08:04:02.564Z,102440.81
2022-12-02T08:06:33.110Z,102436.44
2022-12-02T08:09:05.445Z,102442.34
2022-12-02T08:11:32.425Z,102437.81
2022-12-02T08:13:59.356Z,102433.88
2022-12-02T08:16:26.421Z,102429.16
2022-12-02T08:18:53.459Z,102440.13
2022-12-02T08:21:20.444Z,102449.44
2022-12-02T08:23:49.988Z,102449.44
2022-12-02T08:26:16.979Z,102448.31
2022-12-02T08:28:43.974Z,102444.31
2022-12-02T08:31:11.267Z,102458.38
2022-12-02T08:33:38.406Z,102452.88
2022-12-02T08:36:05.745Z,102460.50
2022-12-02T08:38:32.847Z,102461.38
2022-12-02T08:40:59.855Z,102458.84
2022-12-02T08:43:29.047Z,102466.72
2022-12-02T08:45:56.031Z,102459.34
2022-12-02T08:48:23.107Z,102464.69
2022-12-02T08:50:50.147Z,102461.88
2022-12-02T08:53:34.946Z,102464.25
2022-12-02T08:56:02.163Z,102460.00
2022-12-02T08:58:29.223Z,102454.88
2022-12-02T09:00:59.432Z,102458.50
2022-12-02T09:03:26.370Z,102459.03
2022-12-02T09:05:53.369Z,102460.41
2022-12-02T09:08:22.860Z,102470.88
2022-12-02T09:10:50.084Z,102462.13
2022-12-02T09:13:19.293Z,102465.78
2022-12-02T09:15:46.315Z,102464.59
2022-12-02T09:18:14.743Z,102460.78
2022-12-02T09:20:42.271Z,102453.56
2022-12-02T09:23:09.684Z,102457.50
2022-12-02T09:25:39.193Z,102447.56
2022-12-02T09:28:06.202Z,102453.38
2022-12-02T09:30:37.815Z,102453.84
2022-12-02T09:33:04.878Z,102454.50
2022-12-02T09:35:33.489Z,102444.88
2022-12-02T09:38:00.905Z,102455.47
2022-12-02T09:40:28.050Z,102453.94
2022-12-02T09:42:55.191Z,102444.41
2022-12-02T09:45:22.302Z,102449.59
2022-12-02T09:47:49.388Z,102448.81
2022-12-02T09:50:29.265Z,102453.47
2022-12-02T09:53:03.687Z,102453.25
2022-12-02T09:55:30.793Z,102445.28
2022-12-02T09:58:10.986Z,102457.28
2022-12-02T10:00:38.075Z,102448.94
2022-12-02T10:03:09.032Z,102454.91
2022-12-02T10:05:38.731Z,102454.38
2022-12-02T10:08:13.748Z,102444.22
2022-12-02T10:10:42.711Z,102435.34
2022-12-02T10:13:19.398Z,102455.25
2022-12-02T10:15:46.876Z,102442.91
2022-12-02T10:18:25.898Z,102449.19
2022-12-02T10:20:53.448Z,102438.78
2022-12-02T10:23:31.205Z,102449.75
2022-12-02T10:26:14.981Z,102438.38
2022-12-02T10:28:43.240Z,102440.22
2022-12-02T10:31:22.573Z,102438.53
2022-12-02T10:34:07.215Z,102440.47
2022-12-02T10:36:42.079Z,102435.66
2022-12-02T10:39:21.380Z,102441.53
2022-12-02T10:42:05.373Z,102430.16
2022-12-02T10:44:38.063Z,102435.00
2022-12-02T10:47:26.759Z,102434.09
2022-12-02T10:49:57.333Z,102430.72
2022-12-02T10:52:50.521Z,102423.69
2022-12-02T10:55:19.171Z,102431.78
2022-12-02T10:57:47.783Z,102430.84
2022-12-02T11:00:25.190Z,102425.34
2022-12-02T11:02:57.415Z,102431.56
2022-12-02T11:05:29.367Z,102430.25
2022-12-02T11:07:59.379Z,102416.56
2022-12-02T11:10:39.525Z,102418.91
2022-12-02T11:13:18.646Z,102408.66
2022-12-02T11:15:51.062Z,102414.75
2022-12-02T11:18:38.298Z,102414.53
2022-12-02T11:21:08.214Z,102415.09
2022-12-02T11:23:35.764Z,102403.44
2022-12-02T11:26:11.138Z,102419.66
2022-12-02T11:29:03.588Z,102414.28
2022-12-02T11:31:30.760Z,102413.91
2022-12-02T11:34:05.690Z,102417.50
2022-12-02T11:36:38.967Z,102420.72
2022-12-02T11:39:10.477Z,102412.56
2022-12-02T11:41:49.781Z,102408.00
2022-12-02T11:44:31.391Z,102411.16
2022-12-02T11:47:02.257Z,102414.66
2022-12-02T11:49:32.739Z,102408.47
2022-12-02T11:52:10.389Z,102408.13
2022-12-02T11:54:59.865Z,102406.81
2022-12-02T11:57:41.473Z,102412.69
2022-12-02T12:00:37.531Z,102409.13
2022-12-02T12:03:25.732Z,102404.91
2022-12-02T12:06:09.351Z,102407.38
2022-12-02T12:08:44.781Z,102402.50
2022-12-02T12:11:38.032Z,102411.06
2022-12-02T12:14:14.091Z,102407.69
2022-12-02T12:16:46.550Z,102418.91
2022-12-02T12:19:13.418Z,102409.06
2022-12-02T12:21:54.254Z,102413.00
2022-12-02T12:24:21.588Z,102412.66
2022-12-02T12:26:49.740Z,102413.00
2022-12-02T12:29:20.673Z,102413.69
2022-12-02T12:31:49.667Z,102415.25
2022-12-02T12:34:17.406Z,102407.50
2022-12-02T12:36:46.569Z,102405.00
2022-12-02T12:39:15.659Z,102413.03
2022-12-02T12:42:00.324Z,102415.25
2022-12-02T12:44:30.644Z,102405.50
2022-12-02T12:47:02.556Z,102404.47
2022-12-02T12:49:35.908Z,102406.09
2022-12-02T12:52:03.528Z,102404.72
2022-12-02T12:54:31.091Z,102413.81
2022-12-02T12:57:00.139Z,102411.84
2022-12-02T12:59:27.325Z,102399.22
2022-12-02T13:01:54.351Z,102409.34
2022-12-02T13:04:21.459Z,102398.06
2022-12-02T13:06:48.600Z,102402.50
2022-12-02T13:09:16.521Z,102404.81
2022-12-02T13:11:43.641Z,102399.06
2022-12-02T13:14:10.662Z,102405.19
2022-12-02T13:16:37.716Z,102408.06
2022-12-02T13:19:06.112Z,102408.25
2022-12-02T13:21:33.370Z,102408.91
2022-12-02T13:24:00.404Z,102407.19
2022-12-02T13:26:27.449Z,102409.34
2022-12-02T13:28:54.429Z,102414.66
2022-12-02T13:31:21.819Z,102414.34
2022-12-02T13:33:49.056Z,102410.16
2022-12-02T13:36:16.099Z,102414.09
2022-12-02T13:38:43.217Z,102418.41
2022-12-02T13:41:10.318Z,102415.91
2022-12-02T13:43:37.447Z,102416.25
2022-12-02T13:46:07.097Z,102407.78
2022-12-02T13:48:34.156Z,102414.56
2022-12-02T13:51:02.666Z,102411.06
2022-12-02T13:53:30.580Z,102408.16
2022-12-02T13:55:57.613Z,102402.72
2022-12-02T13:58:25.444Z,102413.72
2022-12-02T14:00:52.467Z,102409.28
2022-12-02T14:03:19.486Z,102405.38
2022-12-02T14:05:46.522Z,102410.06
2022-12-02T14:08:13.617Z,102398.53
2022-12-02T14:10:41.535Z,102400.44
2022-12-02T14:13:15.879Z,102400.72
2022-12-02T14:15:44.402Z,102404.09
2022-12-02T14:18:11.490Z,102406.69
2022-12-02T14:20:38.441Z,102405.44
2022-12-02T14:23:08.389Z,102410.47
2022-12-02T14:25:37.468Z,102400.09
2022-12-02T14:28:05.671Z,102409.16
2022-12-02T14:30:32.902Z,102407.22
2022-12-02T14:32:59.856Z,102409.69
2022-12-02T14:35:26.953Z,102408.31
2022-12-02T14:37:53.915Z,102416.34
2022-12-02T14:40:20.920Z,102408.59
2022-12-02T14:42:47.938Z,102414.13
2022-12-02T14:45:15.008Z,102425.91
2022-12-02T14:47:42.022Z,102411.75
2022-12-02T14:50:09.286Z,102426.41
2022-12-02T14:52:36.334Z,102426.16
2022-12-02T14:55:03.391Z,102423.63
2022-12-02T14:57:30.492Z,102428.94
2022-12-02T14:59:57.457Z,102432.91
2022-12-02T15:02:26.790Z,102415.09
2022-12-02T15:04:56.059Z,102418.47
2022-12-02T15:07:23.290Z,102419.56
2022-12-02T15:09:50.492Z,102423.09
2022-12-02T15:12:17.460Z,102434.03
2022-12-02T15:14:46.698Z,102421.72
2022-12-02T15:17:15.816Z,102420.56
2022-12-02T15:19:43.210Z,102418.78
2022-12-02T15:22:10.228Z,102405.22
2022-12-02T15:24:37.205Z,102412.91
2022-12-02T15:27:04.241Z,102409.91
2022-12-02T15:29:33.888Z,102413.25
2022-12-02T15:32:00.935Z,102415.91
2022-12-02T15:34:27.941Z,102409.47
2022-12-02T15:36:54.990Z,102424.78
2022-12-02T15:39:22.081Z,102420.47
2022-12-02T15:41:49.190Z,102415.03
2022-12-02T15:44:16.291Z,102430.03
2022-12-02T15:46:43.415Z,102431.00
2022-12-02T15:49:13.005Z,102426.00
2022-12-02T15:51:40.194Z,102432.44
2022-12-02T15:54:07.279Z,102426.84
2022-12-02T15:56:34.387Z,102418.41
2022-12-02T15:59:02.518Z,102420.63
2022-12-02T16:01:30.377Z,102425.38
2022-12-02T16:03:57.699Z,102428.31
2022-12-02T16:06:24.734Z,102426.78
2022-12-02T16:08:55.412Z,102423.69
2022-12-02T16:11:22.988Z,102434.13
2022-12-02T16:13:52.787Z,102441.00
2022-12-02T16:16:20.580Z,102452.19
2022-12-02T16:18:49.650Z,102448.13
2022-12-02T16:21:18.256Z,102442.75
2022-12-02T16:23:48.365Z,102448.28
2022-12-02T16:26:15.368Z,102445.63
2022-12-02T16:28:43.222Z,102447.44
2022-12-02T16:31:10.477Z,102451.59
2022-12-02T16:33:37.516Z,102444.22
2022-12-02T16:36:04.917Z,102444.91
2022-12-02T16:38:34.082Z,102451.13
2022-12-02T16:41:01.156Z,102449.66
2022-12-02T16:43:30.260Z,102443.03
2022-12-02T16:45:57.384Z,102452.34
2022-12-02T16:48:24.422Z,102446.09
2022-12-02T16:50:55.715Z,102441.94
2022-12-02T16:53:23.427Z,102453.19
2022-12-02T16:55:50.693Z,102449.97
2022-12-02T16:58:17.878Z,102447.28
2022-12-02T17:00:47.590Z,102451.81
2022-12-02T17:03:16.811Z,102450.97
2022-12-02T17:05:43.931Z,102449.97
2022-12-02T17:08:11.144Z,102447.13
2022-12-02T17:10:40.386Z,102443.91
2022-12-02T17:13:07.654Z,102441.47
2022-12-02T17:15:34.724Z,102436.13
2022-12-02T17:18:01.756Z,102447.28
2022-12-02T17:20:28.921Z,102443.06
2022-12-02T17:22:56.220Z,102439.78
2022-12-02T17:25:23.891Z,102440.63
2022-12-02T17:27:54.242Z,102445.94
2022-12-02T17:30:23.749Z,102449.13
2022-12-02T17:32:56.546Z,102445.72
2022-12-02T17:35:26.770Z,102452.19
2022-12-02T17:37:53.832Z,102452.97
2022-12-02T17:40:22.344Z,102453.50
2022-12-02T17:42:49.515Z,102452.47
2022-12-02T17:45:16.654Z,102451.94
2022-12-02T17:47:43.628Z,102460.09
2022-12-02T17:50:15.983Z,102462.75
2022-12-02T17:52:43.742Z,102456.91
2022-12-02T17:55:11.102Z,102461.69
2022-12-02T17:57:38.764Z,102451.88
2022-12-02T18:00:10.790Z,102452.66
2022-12-02T18:02:40.723Z,102455.09
2022-12-02T18:05:08.789Z,102454.03
2022-12-02T18:07:38.666Z,102449.44
2022-12-02T18:10:09.039Z,102454.16
2022-12-02T18:12:36.063Z,102451.63
2022-12-02T18:15:03.157Z,102456.91
2022-12-02T18:17:30.145Z,102448.13
2022-12-02T18:19:57.284Z,102453.19
2022-12-02T18:22:24.344Z,102452.97
2022-12-02T18:24:51.887Z,102445.69
2022-12-02T18:27:19.236Z,102447.06
2022-12-02T18:29:46.700Z,102440.59
2022-12-02T18:32:13.653Z,102441.31
2022-12-02T18:34:40.674Z,102435.81
2022-12-02T18:37:07.711Z,102441.47
2022-12-02T18:39:34.765Z,102438.09
2022-12-02T18:42:05.159Z,102444.34
2022-12-02T18:44:32.264Z,102430.38
2022-12-02T18:46:59.515Z,102431.53
2022-12-02T18:49:28.782Z,102428.44
2022-12-02T18:51:55.763Z,102438.59
2022-12-02T18:54:25.506Z,102438.84
2022-12-02T18:56:55.107Z,102431.81
2022-12-02T18:59:24.322Z,102430.97
2022-12-02T19:01:51.465Z,102428.16
2022-12-02T19:04:18.564Z,102427.84
2022-12-02T19:06:45.549Z,102431.91
2022-12-02T19:09:12.724Z,102421.84
2022-12-02T19:11:39.717Z,102425.22
2022-12-02T19:14:06.788Z,102422.63
2022-12-02T19:16:33.865Z,102429.16
2022-12-02T19:19:01.016Z,102425.84
2022-12-02T19:21:29.308Z,102433.47
2022-12-02T19:23:58.688Z,102430.13
2022-12-02T19:26:25.762Z,102422.72
2022-12-02T19:28:55.330Z,102428.50
2022-12-02T19:31:22.542Z,102440.53
2022-12-02T19:33:49.669Z,102441.88
2022-12-02T19:36:16.771Z,102437.75
2022-12-02T19:38:46.289Z,102434.03
2022-12-02T19:41:13.381Z,102434.72
2022-12-02T19:43:41.725Z,102431.75
2022-12-02T19:46:08.832Z,102435.47
2022-12-02T19:48:35.933Z,102438.72
2022-12-02T19:51:05.212Z,102430.19
2022-12-02T19:53:32.310Z,102437.50
2022-12-02T19:56:01.535Z,102446.06
2022-12-02T19:58:28.759Z,102447.91
2022-12-02T20:00:57.864Z,102446.16
2022-12-02T20:03:24.960Z,102452.75
2022-12-02T20:05:51.999Z,102450.06
2022-12-02T20:08:19.245Z,102447.44
2022-12-02T20:10:46.599Z,102449.53
2022-12-02T20:13:13.950Z,102451.47
2022-12-02T20:15:41.431Z,102454.28
2022-12-02T20:18:08.500Z,102445.72
2022-12-02T20:20:35.940Z,102449.53
2022-12-02T20:23:04.130Z,102448.00
2022-12-02T20:25:31.884Z,102453.88
2022-12-02T20:27:59.106Z,102447.72
2022-12-02T20:30:26.364Z,102457.78
2022-12-02T20:32:53.933Z,102449.78
2022-12-02T20:35:23.657Z,102446.84
2022-12-02T20:37:50.942Z,102452.31
2022-12-02T20:40:18.310Z,102445.28
2022-12-02T20:42:47.899Z,102453.34
2022-12-02T20:45:17.693Z,102446.81
2022-12-02T20:47:47.377Z,102442.44
2022-12-02T20:50:14.790Z,102438.69
2022-12-02T20:52:41.989Z,102437.56
2022-12-02T20:55:12.685Z,102447.88
2022-12-02T20:57:40.069Z,102432.34
2022-12-02T21:00:08.264Z,102433.31
2022-12-02T21:02:35.728Z,102443.88
2022-12-02T21:05:05.385Z,102440.81
2022-12-02T21:07:32.666Z,102440.25
2022-12-02T21:10:00.204Z,102441.81
2022-12-02T21:12:27.369Z,102437.94
2022-12-02T21:14:55.048Z,102441.63
2022-12-02T21:17:22.600Z,102444.66
2022-12-02T21:19:53.309Z,102430.97
2022-12-02T21:22:20.772Z,102435.19
2022-12-02T21:24:50.517Z,102442.69
2022-12-02T21:27:17.868Z,102447.69
2022-12-02T21:29:45.416Z,102445.31
2022-12-02T21:32:13.419Z,102445.91
2022-12-02T21:34:40.737Z,102447.44
2022-12-02T21:37:08.089Z,102452.84
2022-12-02T21:39:35.748Z,102460.97
2022-12-02T21:42:02.966Z,102456.06
2022-12-02T21:44:35.171Z,102443.66
2022-12-02T21:47:04.664Z,102456.78
2022-12-02T21:49:31.842Z,102453.19
2022-12-02T21:51:59.365Z,102450.84
2022-12-02T21:54:26.702Z,102457.63
2022-12-02T21:56:54.213Z,102454.22
2022-12-02T21:59:21.469Z,102463.00
2022-12-02T22:01:49.052Z,102462.28
2022-12-02T22:04:19.425Z,102457.31
2022-12-02T22:06:47.003Z,102458.63
2022-12-02T22:09:14.264Z,102461.25
2022-12-02T22:11:41.682Z,102452.66
2022-12-02T22:14:08.982Z,102449.03
2022-12-02T22:16:36.327Z,102454.25
2022-12-02T22:19:07.965Z,102455.75
2022-12-02T22:21:37.518Z,102449.38
2022-12-02T22:24:05.045Z,102452.53
2022-12-02T22:26:32.346Z,102445.94
2022-12-02T22:28:59.786Z,102444.25
2022-12-02T22:31:27.093Z,102453.50
2022-12-02T22:33:54.511Z,102454.94
2022-12-02T22:36:21.689Z,102449.25
2022-12-02T22:38:51.380Z,102452.41
2022-12-02T22:41:19.053Z,102446.75
2022-12-02T22:43:48.592Z,102445.06
2022-12-02T22:46:16.050Z,102446.06
2022-12-02T22:48:43.896Z,102448.06
2022-12-02T22:51:11.214Z,102448.53
2022-12-02T22:53:38.795Z,102444.13
2022-12-02T22:56:06.940Z,102442.19
2022-12-02T22:58:34.326Z,102441.38
2022-12-02T23:01:03.902Z,102434.34
2022-12-02T23:03:31.064Z,102425.56
2022-12-02T23:05:58.336Z,102433.28
2022-12-02T23:08:30.087Z,102426.41
2022-12-02T23:10:57.684Z,102425.66
2022-12-02T23:13:25.104Z,102422.59
2022-12-02T23:15:52.666Z,102426.22
2022-12-02T23:18:20.061Z,102417.66
2022-12-02T23:21:39.947Z,102419.22
2022-12-02T23:24:32.230Z,102420.44
2022-12-02T23:26:59.652Z,102418.56
2022-12-02T23:29:27.856Z,102416.81
2022-12-02T23:31:55.203Z,102410.59
2022-12-02T23:34:22.890Z,102414.75
2022-12-02T23:37:01.504Z,102417.53
2022-12-02T23:39:34.518Z,102419.66
2022-12-02T23:42:01.979Z,102413.63
2022-12-02T23:44:29.549Z,102406.16
2022-12-02T23:46:57.148Z,102412.34
2022-12-02T23:49:24.687Z,102412.38
2022-12-02T23:51:52.374Z,102404.72
2022-12-02T23:54:19.731Z,102410.31
2022-12-02T23:56:47.321Z,102407.88
2022-12-02T23:59:14.646Z,102408.41
